createdAt,value
2019-03-20T00:00:03.504Z,0.0
2019-03-20T00:10:17.013Z,0.0
2019-03-20T00:20:37.406Z,0.0
2019-03-20T00:31:05.138Z,0.0
2019-03-20T00:41:26.269Z,0.0
2019-03-20T00:51:37.477Z,0.0
2019-03-20T01:02:04.089Z,0.0
2019-03-20T01:12:17.936Z,0.0
2019-03-20T01:22:37.766Z,0.0
2019-03-20T01:33:04.688Z,0.0
2019-03-20T01:43:25.303Z,0.0
2019-03-20T01:53:50.905Z,0.0
2019-03-20T02:04:16.126Z,0.0
2019-03-20T02:14:30.308Z,0.0
2019-03-20T02:24:57.561Z,0.0
2019-03-20T02:35:22.332Z,0.0
2019-03-20T02:45:54.785Z,0.0
2019-03-20T02:56:13.457Z,0.0
2019-03-20T03:06:24.637Z,0.0
2019-03-20T03:17:33.437Z,0.0
2019-03-20T03:28:15.131Z,0.0
2019-03-20T03:39:03.138Z,0.0
2019-03-20T03:49:22.828Z,0.0
2019-03-20T04:00:16.351Z,0.0
2019-03-20T04:11:24.896Z,0.0
2019-03-20T04:22:42.589Z,0.0
2019-03-20T04:33:00.727Z,0.0
2019-03-20T04:43:59.621Z,0.0
2019-03-20T04:58:23.252Z,0.0
2019-03-20T05:11:30.650Z,4.0
2019-03-20T05:21:59.855Z,40.0
2019-03-20T05:32:53.451Z,120.0
2019-03-20T05:43:53.262Z,336.0
2019-03-20T05:54:53.029Z,656.0
2019-03-20T06:06:47.326Z,1156.0
2019-03-20T06:17:38.746Z,1840.0
2019-03-20T06:28:34.199Z,2368.0
2019-03-20T06:38:51.193Z,2876.0
2019-03-20T06:49:42.446Z,1836.0
2019-03-20T07:00:38.009Z,1948.0
2019-03-20T07:10:52.021Z,2588.0
2019-03-20T07:22:19.889Z,3236.0
2019-03-20T07:33:19.579Z,3172.0
2019-03-20T07:44:12.905Z,2796.0
2019-03-20T07:55:08.536Z,3668.0
2019-03-20T08:05:28.879Z,4548.0
2019-03-20T08:15:53.393Z,7324.0
2019-03-20T08:26:42.735Z,6472.0
2019-03-20T08:39:00.304Z,8788.0
2019-03-20T08:49:26.361Z,7456.0
2019-03-20T08:59:59.354Z,4980.0
2019-03-20T09:11:18.643Z,4224.0
2019-03-20T09:22:15.581Z,4620.0
2019-03-20T09:33:07.431Z,6048.0
2019-03-20T09:46:17.072Z,7340.0
2019-03-20T09:56:35.125Z,6792.0
2019-03-20T10:07:44.580Z,7644.0
2019-03-20T10:18:02.358Z,7024.0
2019-03-20T10:28:52.687Z,9448.0
2019-03-20T10:39:50.483Z,9960.0
2019-03-20T10:50:44.270Z,14028.0
2019-03-20T11:02:28.767Z,11720.0
2019-03-20T11:13:18.528Z,8304.0
2019-03-20T11:25:57.057Z,5700.0
2019-03-20T11:42:40.677Z,5020.0
2019-03-20T11:53:30.271Z,5476.0
2019-03-20T12:04:39.795Z,7032.0
2019-03-20T12:16:29.376Z,5512.0
2019-03-20T12:28:05.344Z,4508.0
2019-03-20T12:45:37.369Z,4000.0
2019-03-20T13:22:58.746Z,4580.0
2019-03-20T13:34:18.981Z,4356.0
2019-03-20T13:45:10.151Z,4828.0
2019-03-20T13:56:41.913Z,6060.0
2019-03-20T17:26:57.286Z,140.0
2019-03-20T17:38:17.284Z,64.0
2019-03-20T17:49:05.418Z,36.0
2019-03-20T18:00:02.090Z,8.0
2019-03-20T18:11:28.339Z,0.0
2019-03-20T18:22:39.887Z,0.0
2019-03-20T18:35:33.527Z,0.0
2019-03-20T18:46:26.901Z,0.0
2019-03-20T18:57:17.854Z,0.0
2019-03-20T19:08:13.013Z,0.0
2019-03-20T20:59:50.854Z,0.0
2019-03-20T21:11:09.589Z,0.0
2019-03-20T21:22:05.046Z,0.0
2019-03-20T21:34:50.301Z,0.0
2019-03-20T21:48:56.190Z,0.0
2019-03-20T22:03:19.163Z,0.0
2019-03-20T22:14:32.025Z,0.0
2019-03-20T22:26:18.272Z,0.0
2019-03-20T22:38:19.739Z,0.0
2019-03-20T22:49:21.675Z,0.0
2019-03-20T23:05:59.353Z,0.0
2019-03-20T23:17:00.225Z,0.0
2019-03-20T23:29:16.140Z,0.0
2019-03-20T23:40:49.643Z,0.0
2019-03-20T23:51:26.240Z,0.0
